sensor_id;sensor_type;location;lat;lon;timestamp;P1;durP1;ratioP1;P2;durP2;ratioP2
17193;SDS011;8713;48.388;10.928;2023-09-08T05:15:11;7.97;;;5.20;;
17193;SDS011;8713;48.388;10.928;2023-09-08T05:16:27;8.85;;;5.38;;
17193;SDS011;8713;48.388;10.928;2023-09-08T05:17:48;7.53;;;5.00;;
17193;SDS011;8713;48.388;10.928;2023-09-08T05:18:58;9.18;;;6.45;;
17193;SDS011;8713;48.388;10.928;2023-09-08T05:20:08;10.30;;;7.13;;
17193;SDS011;8713;48.388;10.928;2023-09-08T05:21:18;11.52;;;8.43;;
17193;SDS011;8713;48.388;10.928;2023-09-08T05:22:28;14.23;;;10.18;;
17193;SDS011;8713;48.388;10.928;2023-09-08T05:23:37;13.57;;;10.32;;
17193;SDS011;8713;48.388;10.928;2023-09-08T05:24:48;12.25;;;8.77;;
17193;SDS011;8713;48.388;10.928;2023-09-08T05:25:57;10.48;;;7.68;;
17193;SDS011;8713;48.388;10.928;2023-09-08T05:27:07;12.00;;;7.80;;
17193;SDS011;8713;48.388;10.928;2023-09-08T05:28:17;9.77;;;7.57;;
17193;SDS011;8713;48.388;10.928;2023-09-08T05:29:26;12.13;;;7.45;;
17193;SDS011;8713;48.388;10.928;2023-09-08T05:30:36;9.38;;;6.15;;
17193;SDS011;8713;48.388;10.928;2023-09-08T05:31:45;8.35;;;5.63;;
17193;SDS011;8713;48.388;10.928;2023-09-08T05:32:55;10.18;;;6.25;;
17193;SDS011;8713;48.388;10.928;2023-09-08T05:34:05;11.77;;;6.88;;
17193;SDS011;8713;48.388;10.928;2023-09-08T05:35:15;11.57;;;6.57;;
17193;SDS011;8713;48.388;10.928;2023-09-08T05:36:25;10.18;;;6.82;;
17193;SDS011;8713;48.388;10.928;2023-09-08T05:37:35;12.55;;;8.50;;
17193;SDS011;8713;48.388;10.928;2023-09-08T05:38:45;11.52;;;8.13;;
17193;SDS011;8713;48.388;10.928;2023-09-08T05:39:55;10.65;;;7.82;;
17193;SDS011;8713;48.388;10.928;2023-09-08T05:41:04;12.23;;;8.45;;
17193;SDS011;8713;48.388;10.928;2023-09-08T05:42:14;14.27;;;9.90;;
17193;SDS011;8713;48.388;10.928;2023-09-08T05:43:24;14.25;;;8.52;;
17193;SDS011;8713;48.388;10.928;2023-09-08T05:44:34;15.57;;;8.90;;
17193;SDS011;8713;48.388;10.928;2023-09-08T05:45:44;11.07;;;8.35;;
17193;SDS011;8713;48.388;10.928;2023-09-08T05:46:54;11.85;;;7.57;;
17193;SDS011;8713;48.388;10.928;2023-09-08T05:48:03;15.77;;;7.68;;
17193;SDS011;8713;48.388;10.928;2023-09-08T05:49:13;13.55;;;7.53;;
17193;SDS011;8713;48.388;10.928;2023-09-08T05:50:23;11.05;;;6.70;;
17193;SDS011;8713;48.388;10.928;2023-09-08T05:51:33;10.98;;;6.47;;
17193;SDS011;8713;48.388;10.928;2023-09-08T05:52:44;11.80;;;6.82;;
17193;SDS011;8713;48.388;10.928;2023-09-08T05:53:54;10.25;;;6.75;;
17193;SDS011;8713;48.388;10.928;2023-09-08T05:55:04;13.02;;;6.28;;
17193;SDS011;8713;48.388;10.928;2023-09-08T05:56:14;10.63;;;6.47;;
17193;SDS011;8713;48.388;10.928;2023-09-08T05:57:26;10.35;;;6.55;;
17193;SDS011;8713;48.388;10.928;2023-09-08T05:58:37;11.15;;;6.20;;
17193;SDS011;8713;48.388;10.928;2023-09-08T05:59:47;11.85;;;6.35;;
17193;SDS011;8713;48.388;10.928;2023-09-08T06:00:57;9.85;;;6.05;;
17193;SDS011;8713;48.388;10.928;2023-09-08T06:02:07;11.48;;;6.40;;
17193;SDS011;8713;48.388;10.928;2023-09-08T06:03:16;16.42;;;6.97;;
17193;SDS011;8713;48.388;10.928;2023-09-08T06:04:25;10.07;;;6.43;;
17193;SDS011;8713;48.388;10.928;2023-09-08T06:05:35;12.23;;;5.82;;
17193;SDS011;8713;48.388;10.928;2023-09-08T06:06:44;10.65;;;6.32;;
17193;SDS011;8713;48.388;10.928;2023-09-08T06:07:54;11.25;;;6.50;;
17193;SDS011;8713;48.388;10.928;2023-09-08T06:09:03;12.18;;;7.07;;
17193;SDS011;8713;48.388;10.928;2023-09-08T06:10:15;14.95;;;6.35;;
17193;SDS011;8713;48.388;10.928;2023-09-08T06:11:24;13.13;;;5.97;;
17193;SDS011;8713;48.388;10.928;2023-09-08T06:12:34;12.18;;;6.50;;
17193;SDS011;8713;48.388;10.928;2023-09-08T06:13:44;11.07;;;6.57;;
17193;SDS011;8713;48.388;10.928;2023-09-08T06:14:53;10.20;;;6.40;;
17193;SDS011;8713;48.388;10.928;2023-09-08T06:16:02;9.93;;;6.25;;
17193;SDS011;8713;48.388;10.928;2023-09-08T06:17:12;11.73;;;6.07;;
17193;SDS011;8713;48.388;10.928;2023-09-08T06:18:21;12.30;;;6.80;;
17193;SDS011;8713;48.388;10.928;2023-09-08T06:19:31;10.10;;;6.28;;
17193;SDS011;8713;48.388;10.928;2023-09-08T06:20:44;13.27;;;6.68;;
17193;SDS011;8713;48.388;10.928;2023-09-08T06:21:57;12.02;;;6.20;;
17193;SDS011;8713;48.388;10.928;2023-09-08T06:23:07;10.88;;;5.50;;
17193;SDS011;8713;48.388;10.928;2023-09-08T06:24:18;11.10;;;6.03;;
17193;SDS011;8713;48.388;10.928;2023-09-08T06:25:27;11.48;;;5.80;;
17193;SDS011;8713;48.388;10.928;2023-09-08T06:26:39;9.32;;;5.30;;
17193;SDS011;8713;48.388;10.928;2023-09-08T06:27:49;11.10;;;5.75;;
17193;SDS011;8713;48.388;10.928;2023-09-08T06:28:59;9.90;;;5.20;;
17193;SDS011;8713;48.388;10.928;2023-09-08T06:30:08;10.32;;;5.63;;
17193;SDS011;8713;48.388;10.928;2023-09-08T06:31:19;8.98;;;5.13;;
17193;SDS011;8713;48.388;10.928;2023-09-08T06:32:29;13.50;;;5.45;;
17193;SDS011;8713;48.388;10.928;2023-09-08T06:33:38;9.73;;;5.25;;
17193;SDS011;8713;48.388;10.928;2023-09-08T06:34:48;8.98;;;5.53;;
17193;SDS011;8713;48.388;10.928;2023-09-08T06:35:57;11.38;;;5.30;;
17193;SDS011;8713;48.388;10.928;2023-09-08T06:37:07;9.63;;;5.40;;
17193;SDS011;8713;48.388;10.928;2023-09-08T06:38:17;8.10;;;5.20;;
17193;SDS011;8713;48.388;10.928;2023-09-08T06:39:26;9.10;;;5.50;;
17193;SDS011;8713;48.388;10.928;2023-09-08T06:40:36;7.10;;;4.90;;
17193;SDS011;8713;48.388;10.928;2023-09-08T06:41:46;8.90;;;5.32;;
17193;SDS011;8713;48.388;10.928;2023-09-08T06:42:58;11.15;;;5.38;;
17193;SDS011;8713;48.388;10.928;2023-09-08T06:44:19;7.32;;;4.80;;
17193;SDS011;8713;48.388;10.928;2023-09-08T06:45:29;11.60;;;5.47;;
17193;SDS011;8713;48.388;10.928;2023-09-08T06:46:38;9.55;;;4.68;;
17193;SDS011;8713;48.388;10.928;2023-09-08T06:47:48;10.00;;;5.30;;
17193;SDS011;8713;48.388;10.928;2023-09-08T06:48:59;10.90;;;4.95;;
17193;SDS011;8713;48.388;10.928;2023-09-08T06:50:09;8.43;;;4.93;;
17193;SDS011;8713;48.388;10.928;2023-09-08T06:51:19;6.75;;;4.50;;
17193;SDS011;8713;48.388;10.928;2023-09-08T06:52:28;6.93;;;4.68;;
17193;SDS011;8713;48.388;10.928;2023-09-08T06:53:38;6.28;;;4.32;;
17193;SDS011;8713;48.388;10.928;2023-09-08T06:54:48;8.80;;;4.50;;
17193;SDS011;8713;48.388;10.928;2023-09-08T06:55:58;6.15;;;3.95;;
17193;SDS011;8713;48.388;10.928;2023-09-08T06:57:07;9.48;;;4.72;;
17193;SDS011;8713;48.388;10.928;2023-09-08T06:58:17;9.38;;;5.05;;
17193;SDS011;8713;48.388;10.928;2023-09-08T06:59:27;11.10;;;4.55;;
17193;SDS011;8713;48.388;10.928;2023-09-08T07:00:37;9.07;;;4.75;;
17193;SDS011;8713;48.388;10.928;2023-09-08T07:01:47;7.22;;;4.07;;
17193;SDS011;8713;48.388;10.928;2023-09-08T07:02:57;7.82;;;4.80;;
17193;SDS011;8713;48.388;10.928;2023-09-08T07:04:07;8.52;;;4.30;;
17193;SDS011;8713;48.388;10.928;2023-09-08T07:05:16;7.63;;;4.25;;
17193;SDS011;8713;48.388;10.928;2023-09-08T07:06:26;10.18;;;4.40;;
17193;SDS011;8713;48.388;10.928;2023-09-08T07:07:35;6.75;;;4.28;;
17193;SDS011;8713;48.388;10.928;2023-09-08T07:08:45;9.10;;;4.05;;
17193;SDS011;8713;48.388;10.928;2023-09-08T07:09:54;10.73;;;4.45;;
17193;SDS011;8713;48.388;10.928;2023-09-08T07:11:04;8.18;;;4.20;;
17193;SDS011;8713;48.388;10.928;2023-09-08T07:12:13;7.85;;;4.60;;
17193;SDS011;8713;48.388;10.928;2023-09-08T07:13:22;7.13;;;4.30;;
17193;SDS011;8713;48.388;10.928;2023-09-08T07:14:32;6.55;;;4.03;;
17193;SDS011;8713;48.388;10.928;2023-09-08T07:15:41;6.18;;;4.28;;
17193;SDS011;8713;48.388;10.928;2023-09-08T07:16:51;8.00;;;4.60;;
17193;SDS011;8713;48.388;10.928;2023-09-08T07:18:00;9.95;;;4.55;;
17193;SDS011;8713;48.388;10.928;2023-09-08T07:19:09;7.47;;;4.47;;
17193;SDS011;8713;48.388;10.928;2023-09-08T07:20:19;7.40;;;4.40;;
17193;SDS011;8713;48.388;10.928;2023-09-08T07:21:28;8.45;;;4.30;;
17193;SDS011;8713;48.388;10.928;2023-09-08T07:22:38;6.65;;;4.43;;
17193;SDS011;8713;48.388;10.928;2023-09-08T07:23:48;6.18;;;4.45;;
17193;SDS011;8713;48.388;10.928;2023-09-08T07:24:57;8.05;;;4.60;;
17193;SDS011;8713;48.388;10.928;2023-09-08T07:26:06;8.60;;;4.75;;
17193;SDS011;8713;48.388;10.928;2023-09-08T07:27:16;7.45;;;4.38;;
17193;SDS011;8713;48.388;10.928;2023-09-08T07:28:26;6.63;;;4.70;;
17193;SDS011;8713;48.388;10.928;2023-09-08T07:29:37;8.07;;;4.45;;
17193;SDS011;8713;48.388;10.928;2023-09-08T07:30:47;7.10;;;4.80;;
17193;SDS011;8713;48.388;10.928;2023-09-08T07:31:56;7.10;;;4.55;;
17193;SDS011;8713;48.388;10.928;2023-09-08T07:33:05;7.45;;;4.53;;
17193;SDS011;8713;48.388;10.928;2023-09-08T07:34:15;10.20;;;4.72;;
17193;SDS011;8713;48.388;10.928;2023-09-08T07:35:25;7.90;;;4.18;;
17193;SDS011;8713;48.388;10.928;2023-09-08T07:36:35;8.00;;;4.50;;
17193;SDS011;8713;48.388;10.928;2023-09-08T07:37:45;8.32;;;4.75;;
17193;SDS011;8713;48.388;10.928;2023-09-08T07:38:55;7.03;;;4.30;;
17193;SDS011;8713;48.388;10.928;2023-09-08T07:40:05;8.10;;;4.15;;
17193;SDS011;8713;48.388;10.928;2023-09-08T07:41:15;7.43;;;4.05;;
17193;SDS011;8713;48.388;10.928;2023-09-08T07:42:24;7.50;;;4.65;;
17193;SDS011;8713;48.388;10.928;2023-09-08T07:43:34;7.65;;;4.60;;
17193;SDS011;8713;48.388;10.928;2023-09-08T07:44:49;8.25;;;4.68;;
17193;SDS011;8713;48.388;10.928;2023-09-08T07:45:58;7.47;;;4.40;;
17193;SDS011;8713;48.388;10.928;2023-09-08T07:47:08;6.40;;;4.32;;
17193;SDS011;8713;48.388;10.928;2023-09-08T07:48:17;6.97;;;4.25;;
17193;SDS011;8713;48.388;10.928;2023-09-08T07:49:26;6.13;;;4.18;;
17193;SDS011;8713;48.388;10.928;2023-09-08T07:50:36;7.95;;;4.50;;
17193;SDS011;8713;48.388;10.928;2023-09-08T07:51:45;7.53;;;4.57;;
17193;SDS011;8713;48.388;10.928;2023-09-08T07:52:55;5.97;;;4.00;;
17193;SDS011;8713;48.388;10.928;2023-09-08T07:54:05;5.75;;;4.00;;
17193;SDS011;8713;48.388;10.928;2023-09-08T07:55:15;6.53;;;4.50;;
17193;SDS011;8713;48.388;10.928;2023-09-08T07:56:25;10.23;;;4.35;;
17193;SDS011;8713;48.388;10.928;2023-09-08T07:57:34;8.80;;;4.47;;
17193;SDS011;8713;48.388;10.928;2023-09-08T07:58:43;6.57;;;4.53;;
17193;SDS011;8713;48.388;10.928;2023-09-08T07:59:52;7.10;;;4.75;;
17193;SDS011;8713;48.388;10.928;2023-09-08T08:01:01;7.13;;;4.22;;
17193;SDS011;8713;48.388;10.928;2023-09-08T08:02:11;6.57;;;4.35;;
17193;SDS011;8713;48.388;10.928;2023-09-08T08:03:20;8.15;;;4.82;;
17193;SDS011;8713;48.388;10.928;2023-09-08T08:04:30;9.68;;;5.38;;
17193;SDS011;8713;48.388;10.928;2023-09-08T08:05:39;7.65;;;4.45;;
17193;SDS011;8713;48.388;10.928;2023-09-08T08:06:49;7.65;;;4.57;;
17193;SDS011;8713;48.388;10.928;2023-09-08T08:07:59;6.10;;;4.45;;
17193;SDS011;8713;48.388;10.928;2023-09-08T08:09:08;6.65;;;4.47;;
17193;SDS011;8713;48.388;10.928;2023-09-08T08:10:20;10.32;;;4.38;;
17193;SDS011;8713;48.388;10.928;2023-09-08T08:11:29;7.90;;;4.28;;
17193;SDS011;8713;48.388;10.928;2023-09-08T08:12:39;8.70;;;4.80;;
17193;SDS011;8713;48.388;10.928;2023-09-08T08:13:50;9.23;;;5.03;;
17193;SDS011;8713;48.388;10.928;2023-09-08T08:14:59;7.10;;;4.28;;
17193;SDS011;8713;48.388;10.928;2023-09-08T08:16:09;8.38;;;4.35;;
17193;SDS011;8713;48.388;10.928;2023-09-08T08:17:19;6.50;;;4.15;;
17193;SDS011;8713;48.388;10.928;2023-09-08T08:18:29;7.97;;;4.57;;
17193;SDS011;8713;48.388;10.928;2023-09-08T08:19:39;8.68;;;4.50;;
17193;SDS011;8713;48.388;10.928;2023-09-08T08:20:49;7.28;;;4.78;;
17193;SDS011;8713;48.388;10.928;2023-09-08T08:21:58;7.18;;;4.70;;
17193;SDS011;8713;48.388;10.928;2023-09-08T08:23:07;8.63;;;4.15;;
17193;SDS011;8713;48.388;10.928;2023-09-08T08:24:17;8.00;;;4.90;;
17193;SDS011;8713;48.388;10.928;2023-09-08T08:25:27;8.27;;;4.82;;
17193;SDS011;8713;48.388;10.928;2023-09-08T08:26:37;10.00;;;4.40;;
17193;SDS011;8713;48.388;10.928;2023-09-08T08:27:47;9.05;;;4.47;;
17193;SDS011;8713;48.388;10.928;2023-09-08T08:28:57;7.05;;;4.65;;
17193;SDS011;8713;48.388;10.928;2023-09-08T08:30:07;8.70;;;5.10;;
17193;SDS011;8713;48.388;10.928;2023-09-08T08:31:17;6.13;;;4.13;;
17193;SDS011;8713;48.388;10.928;2023-09-08T08:32:27;7.57;;;4.15;;
17193;SDS011;8713;48.388;10.928;2023-09-08T08:33:37;6.50;;;4.70;;
17193;SDS011;8713;48.388;10.928;2023-09-08T08:34:47;8.40;;;4.70;;
17193;SDS011;8713;48.388;10.928;2023-09-08T08:35:56;11.45;;;4.57;;
17193;SDS011;8713;48.388;10.928;2023-09-08T08:37:06;6.05;;;3.95;;
17193;SDS011;8713;48.388;10.928;2023-09-08T08:38:16;6.13;;;4.25;;
17193;SDS011;8713;48.388;10.928;2023-09-08T08:39:25;7.30;;;4.35;;
17193;SDS011;8713;48.388;10.928;2023-09-08T08:40:37;9.20;;;4.30;;
17193;SDS011;8713;48.388;10.928;2023-09-08T08:41:48;7.22;;;4.50;;
17193;SDS011;8713;48.388;10.928;2023-09-08T08:42:57;7.88;;;4.35;;
17193;SDS011;8713;48.388;10.928;2023-09-08T08:44:07;7.03;;;3.97;;
17193;SDS011;8713;48.388;10.928;2023-09-08T08:45:17;7.20;;;4.13;;
17193;SDS011;8713;48.388;10.928;2023-09-08T08:46:28;8.38;;;4.60;;
17193;SDS011;8713;48.388;10.928;2023-09-08T08:47:38;6.90;;;3.60;;
17193;SDS011;8713;48.388;10.928;2023-09-08T08:48:48;6.78;;;4.07;;
17193;SDS011;8713;48.388;10.928;2023-09-08T08:50:01;6.18;;;3.58;;
17193;SDS011;8713;48.388;10.928;2023-09-08T08:51:11;7.03;;;3.47;;
17193;SDS011;8713;48.388;10.928;2023-09-08T08:52:22;6.60;;;3.88;;
17193;SDS011;8713;48.388;10.928;2023-09-08T08:53:31;7.85;;;4.13;;
17193;SDS011;8713;48.388;10.928;2023-09-08T08:54:42;9.75;;;4.68;;
17193;SDS011;8713;48.388;10.928;2023-09-08T08:55:52;6.97;;;4.18;;
17193;SDS011;8713;48.388;10.928;2023-09-08T08:57:05;5.20;;;3.78;;
17193;SDS011;8713;48.388;10.928;2023-09-08T08:58:16;6.03;;;4.22;;
17193;SDS011;8713;48.388;10.928;2023-09-08T08:59:30;6.15;;;3.90;;
17193;SDS011;8713;48.388;10.928;2023-09-08T09:00:40;7.25;;;4.00;;
17193;SDS011;8713;48.388;10.928;2023-09-08T09:01:50;7.40;;;4.00;;
17193;SDS011;8713;48.388;10.928;2023-09-08T09:03:06;5.72;;;3.75;;
17193;SDS011;8713;48.388;10.928;2023-09-08T09:04:16;6.15;;;3.38;;
17193;SDS011;8713;48.388;10.928;2023-09-08T09:05:25;6.00;;;4.07;;
17193;SDS011;8713;48.388;10.928;2023-09-08T09:06:35;7.45;;;4.38;;
17193;SDS011;8713;48.388;10.928;2023-09-08T09:07:45;5.90;;;4.05;;
17193;SDS011;8713;48.388;10.928;2023-09-08T09:08:54;7.50;;;3.60;;
17193;SDS011;8713;48.388;10.928;2023-09-08T09:10:04;8.27;;;4.18;;
17193;SDS011;8713;48.388;10.928;2023-09-08T09:11:32;7.18;;;3.50;;
17193;SDS011;8713;48.388;10.928;2023-09-08T09:13:01;5.40;;;3.72;;
17193;SDS011;8713;48.388;10.928;2023-09-08T09:14:33;5.25;;;3.35;;
17193;SDS011;8713;48.388;10.928;2023-09-08T09:16:04;7.75;;;4.50;;
17193;SDS011;8713;48.388;10.928;2023-09-08T09:17:36;8.38;;;3.95;;
17193;SDS011;8713;48.388;10.928;2023-09-08T09:19:06;7.75;;;4.30;;
17193;SDS011;8713;48.388;10.928;2023-09-08T09:20:36;6.95;;;3.78;;
17193;SDS011;8713;48.388;10.928;2023-09-08T09:22:05;6.97;;;4.15;;
17193;SDS011;8713;48.388;10.928;2023-09-08T09:23:35;7.40;;;4.50;;
17193;SDS011;8713;48.388;10.928;2023-09-08T09:25:04;7.10;;;4.32;;
17193;SDS011;8713;48.388;10.928;2023-09-08T09:26:36;8.50;;;4.68;;
17193;SDS011;8713;48.388;10.928;2023-09-08T09:28:06;6.55;;;4.65;;
17193;SDS011;8713;48.388;10.928;2023-09-08T09:29:45;6.90;;;4.43;;
17193;SDS011;8713;48.388;10.928;2023-09-08T09:31:17;5.75;;;4.22;;
17193;SDS011;8713;48.388;10.928;2023-09-08T09:32:47;5.93;;;3.60;;
17193;SDS011;8713;48.388;10.928;2023-09-08T09:34:20;7.95;;;3.63;;
17193;SDS011;8713;48.388;10.928;2023-09-08T09:35:52;5.50;;;3.70;;
17193;SDS011;8713;48.388;10.928;2023-09-08T09:37:23;7.38;;;3.80;;
17193;SDS011;8713;48.388;10.928;2023-09-08T09:38:52;7.75;;;3.40;;
17193;SDS011;8713;48.388;10.928;2023-09-08T09:40:29;6.40;;;3.60;;
17193;SDS011;8713;48.388;10.928;2023-09-08T09:41:58;7.28;;;3.95;;
17193;SDS011;8713;48.388;10.928;2023-09-08T09:43:28;8.02;;;4.10;;
17193;SDS011;8713;48.388;10.928;2023-09-08T09:45:00;5.53;;;3.60;;
17193;SDS011;8713;48.388;10.928;2023-09-08T09:46:31;6.63;;;4.18;;
17193;SDS011;8713;48.388;10.928;2023-09-08T09:48:03;4.93;;;3.45;;
17193;SDS011;8713;48.388;10.928;2023-09-08T09:49:33;8.73;;;4.45;;
17193;SDS011;8713;48.388;10.928;2023-09-08T09:51:15;7.63;;;4.80;;
17193;SDS011;8713;48.388;10.928;2023-09-08T09:52:46;6.18;;;3.88;;
17193;SDS011;8713;48.388;10.928;2023-09-08T09:54:18;8.52;;;3.53;;
17193;SDS011;8713;48.388;10.928;2023-09-08T09:55:47;5.85;;;3.92;;
17193;SDS011;8713;48.388;10.928;2023-09-08T09:57:16;6.43;;;3.78;;
17193;SDS011;8713;48.388;10.928;2023-09-08T09:58:52;4.75;;;3.28;;
17193;SDS011;8713;48.388;10.928;2023-09-08T10:00:22;6.65;;;4.22;;
17193;SDS011;8713;48.388;10.928;2023-09-08T10:01:54;5.70;;;3.67;;
17193;SDS011;8713;48.388;10.928;2023-09-08T10:03:24;7.90;;;4.10;;
17193;SDS011;8713;48.388;10.928;2023-09-08T10:04:55;4.72;;;3.42;;
17193;SDS011;8713;48.388;10.928;2023-09-08T10:06:25;6.93;;;4.05;;
17193;SDS011;8713;48.388;10.928;2023-09-08T10:07:55;6.95;;;3.55;;
17193;SDS011;8713;48.388;10.928;2023-09-08T10:09:24;6.10;;;4.13;;
17193;SDS011;8713;48.388;10.928;2023-09-08T10:10:54;6.15;;;3.72;;
17193;SDS011;8713;48.388;10.928;2023-09-08T10:12:24;7.07;;;3.95;;
17193;SDS011;8713;48.388;10.928;2023-09-08T10:13:58;7.28;;;4.38;;
17193;SDS011;8713;48.388;10.928;2023-09-08T10:15:29;5.85;;;3.92;;
17193;SDS011;8713;48.388;10.928;2023-09-08T10:17:00;6.43;;;3.63;;
17193;SDS011;8713;48.388;10.928;2023-09-08T10:18:30;5.65;;;3.75;;
17193;SDS011;8713;48.388;10.928;2023-09-08T10:20:01;5.30;;;3.50;;
17193;SDS011;8713;48.388;10.928;2023-09-08T10:21:41;5.18;;;3.63;;
17193;SDS011;8713;48.388;10.928;2023-09-08T10:23:15;7.25;;;3.60;;
17193;SDS011;8713;48.388;10.928;2023-09-08T10:24:53;6.63;;;4.07;;
17193;SDS011;8713;48.388;10.928;2023-09-08T10:26:25;6.30;;;3.38;;
17193;SDS011;8713;48.388;10.928;2023-09-08T10:27:56;6.30;;;4.03;;
17193;SDS011;8713;48.388;10.928;2023-09-08T10:29:27;8.32;;;3.58;;
17193;SDS011;8713;48.388;10.928;2023-09-08T10:30:57;6.07;;;3.65;;
17193;SDS011;8713;48.388;10.928;2023-09-08T10:32:27;5.55;;;3.63;;
17193;SDS011;8713;48.388;10.928;2023-09-08T10:33:57;4.78;;;3.35;;
17193;SDS011;8713;48.388;10.928;2023-09-08T10:35:27;6.32;;;3.90;;
17193;SDS011;8713;48.388;10.928;2023-09-08T10:36:57;7.15;;;4.07;;
17193;SDS011;8713;48.388;10.928;2023-09-08T10:38:28;5.95;;;3.42;;
17193;SDS011;8713;48.388;10.928;2023-09-08T10:40:46;6.82;;;3.53;;
17193;SDS011;8713;48.388;10.928;2023-09-08T10:43:59;5.80;;;4.22;;
17193;SDS011;8713;48.388;10.928;2023-09-08T10:45:32;5.78;;;3.53;;
17193;SDS011;8713;48.388;10.928;2023-09-08T10:47:01;6.13;;;3.63;;
17193;SDS011;8713;48.388;10.928;2023-09-08T10:48:39;6.90;;;3.90;;
17193;SDS011;8713;48.388;10.928;2023-09-08T10:50:15;5.53;;;3.25;;
17193;SDS011;8713;48.388;10.928;2023-09-08T10:51:47;6.35;;;3.50;;
17193;SDS011;8713;48.388;10.928;2023-09-08T10:53:17;6.68;;;3.92;;
17193;SDS011;8713;48.388;10.928;2023-09-08T10:54:48;5.53;;;3.13;;
17193;SDS011;8713;48.388;10.928;2023-09-08T10:56:19;7.35;;;3.30;;
17193;SDS011;8713;48.388;10.928;2023-09-08T10:57:48;7.70;;;3.38;;
17193;SDS011;8713;48.388;10.928;2023-09-08T10:59:44;5.78;;;3.55;;
17193;SDS011;8713;48.388;10.928;2023-09-08T11:01:23;4.45;;;2.83;;
17193;SDS011;8713;48.388;10.928;2023-09-08T11:02:56;6.13;;;3.42;;
17193;SDS011;8713;48.388;10.928;2023-09-08T11:04:25;4.72;;;3.28;;
17193;SDS011;8713;48.388;10.928;2023-09-08T11:05:56;4.00;;;2.70;;
17193;SDS011;8713;48.388;10.928;2023-09-08T11:07:26;5.82;;;3.80;;
17193;SDS011;8713;48.388;10.928;2023-09-08T11:08:56;6.30;;;3.55;;
17193;SDS011;8713;48.388;10.928;2023-09-08T11:10:27;6.13;;;3.60;;
17193;SDS011;8713;48.388;10.928;2023-09-08T11:12:00;6.85;;;3.50;;
17193;SDS011;8713;48.388;10.928;2023-09-08T11:13:32;6.07;;;3.40;;
17193;SDS011;8713;48.388;10.928;2023-09-08T11:15:02;6.75;;;3.83;;
17193;SDS011;8713;48.388;10.928;2023-09-08T11:16:34;6.72;;;3.85;;
17193;SDS011;8713;48.388;10.928;2023-09-08T11:18:04;7.95;;;3.70;;
17193;SDS011;8713;48.388;10.928;2023-09-08T11:19:48;6.40;;;3.70;;
17193;SDS011;8713;48.388;10.928;2023-09-08T11:21:18;6.50;;;3.65;;
17193;SDS011;8713;48.388;10.928;2023-09-08T11:22:48;7.57;;;3.45;;
17193;SDS011;8713;48.388;10.928;2023-09-08T11:24:18;6.38;;;3.08;;
17193;SDS011;8713;48.388;10.928;2023-09-08T11:25:48;5.05;;;3.45;;
17193;SDS011;8713;48.388;10.928;2023-09-08T11:27:20;4.43;;;3.13;;
17193;SDS011;8713;48.388;10.928;2023-09-08T11:28:50;5.10;;;3.22;;
17193;SDS011;8713;48.388;10.928;2023-09-08T11:30:19;6.20;;;3.15;;
17193;SDS011;8713;48.388;10.928;2023-09-08T11:31:53;5.05;;;3.28;;
17193;SDS011;8713;48.388;10.928;2023-09-08T11:33:23;5.25;;;3.50;;
17193;SDS011;8713;48.388;10.928;2023-09-08T11:34:54;6.33;;;3.70;;
17193;SDS011;8713;48.388;10.928;2023-09-08T11:36:23;6.90;;;3.80;;
17193;SDS011;8713;48.388;10.928;2023-09-08T11:37:53;6.93;;;3.67;;
17193;SDS011;8713;48.388;10.928;2023-09-08T11:39:28;4.22;;;2.90;;
17193;SDS011;8713;48.388;10.928;2023-09-08T11:40:57;5.88;;;3.38;;
17193;SDS011;8713;48.388;10.928;2023-09-08T11:42:27;6.43;;;3.33;;
17193;SDS011;8713;48.388;10.928;2023-09-08T11:43:57;5.53;;;3.58;;
17193;SDS011;8713;48.388;10.928;2023-09-08T11:45:27;6.35;;;3.50;;
17193;SDS011;8713;48.388;10.928;2023-09-08T11:46:56;5.43;;;3.47;;
17193;SDS011;8713;48.388;10.928;2023-09-08T11:48:26;4.72;;;3.20;;
17193;SDS011;8713;48.388;10.928;2023-09-08T11:49:56;6.65;;;3.20;;
17193;SDS011;8713;48.388;10.928;2023-09-08T11:51:26;5.25;;;3.75;;
17193;SDS011;8713;48.388;10.928;2023-09-08T11:52:56;5.35;;;3.40;;
17193;SDS011;8713;48.388;10.928;2023-09-08T11:54:28;4.28;;;3.22;;
17193;SDS011;8713;48.388;10.928;2023-09-08T11:55:58;7.35;;;3.63;;
17193;SDS011;8713;48.388;10.928;2023-09-08T11:57:28;4.28;;;2.90;;
17193;SDS011;8713;48.388;10.928;2023-09-08T11:58:57;7.85;;;3.15;;
17193;SDS011;8713;48.388;10.928;2023-09-08T12:00:27;5.95;;;3.15;;
17193;SDS011;8713;48.388;10.928;2023-09-08T12:01:58;6.03;;;3.25;;
17193;SDS011;8713;48.388;10.928;2023-09-08T12:03:28;8.15;;;3.80;;
17193;SDS011;8713;48.388;10.928;2023-09-08T12:04:57;5.20;;;3.47;;
17193;SDS011;8713;48.388;10.928;2023-09-08T12:06:27;3.83;;;2.90;;
17193;SDS011;8713;48.388;10.928;2023-09-08T12:07:57;4.68;;;3.42;;
17193;SDS011;8713;48.388;10.928;2023-09-08T12:09:27;5.07;;;3.47;;
17193;SDS011;8713;48.388;10.928;2023-09-08T12:10:56;5.85;;;3.47;;
17193;SDS011;8713;48.388;10.928;2023-09-08T12:12:26;6.85;;;3.03;;
17193;SDS011;8713;48.388;10.928;2023-09-08T12:14:06;6.43;;;3.80;;
17193;SDS011;8713;48.388;10.928;2023-09-08T12:15:40;5.43;;;3.03;;
17193;SDS011;8713;48.388;10.928;2023-09-08T12:17:10;4.45;;;3.20;;
17193;SDS011;8713;48.388;10.928;2023-09-08T12:18:43;7.15;;;3.22;;
17193;SDS011;8713;48.388;10.928;2023-09-08T12:20:14;5.32;;;3.17;;
17193;SDS011;8713;48.388;10.928;2023-09-08T12:21:54;5.60;;;4.18;;
17193;SDS011;8713;48.388;10.928;2023-09-08T12:23:26;5.03;;;3.40;;
17193;SDS011;8713;48.388;10.928;2023-09-08T12:24:57;4.25;;;3.33;;
17193;SDS011;8713;48.388;10.928;2023-09-08T12:26:27;9.00;;;3.97;;
17193;SDS011;8713;48.388;10.928;2023-09-08T12:27:59;7.65;;;3.90;;
17193;SDS011;8713;48.388;10.928;2023-09-08T12:29:28;4.88;;;3.15;;
17193;SDS011;8713;48.388;10.928;2023-09-08T12:30:58;5.35;;;3.67;;
17193;SDS011;8713;48.388;10.928;2023-09-08T12:32:31;5.10;;;3.42;;
17193;SDS011;8713;48.388;10.928;2023-09-08T12:34:01;3.88;;;3.10;;
17193;SDS011;8713;48.388;10.928;2023-09-08T12:35:31;5.70;;;3.67;;
17193;SDS011;8713;48.388;10.928;2023-09-08T12:37:00;4.32;;;3.20;;
17193;SDS011;8713;48.388;10.928;2023-09-08T12:38:30;9.60;;;3.60;;
17193;SDS011;8713;48.388;10.928;2023-09-08T12:40:01;5.85;;;3.60;;
17193;SDS011;8713;48.388;10.928;2023-09-08T12:41:31;5.28;;;3.45;;
17193;SDS011;8713;48.388;10.928;2023-09-08T12:43:01;5.72;;;3.42;;
17193;SDS011;8713;48.388;10.928;2023-09-08T12:44:30;5.85;;;3.72;;
17193;SDS011;8713;48.388;10.928;2023-09-08T12:46:00;7.60;;;3.70;;
17193;SDS011;8713;48.388;10.928;2023-09-08T12:47:29;7.18;;;2.97;;
17193;SDS011;8713;48.388;10.928;2023-09-08T12:48:58;5.25;;;3.25;;
17193;SDS011;8713;48.388;10.928;2023-09-08T12:50:28;5.13;;;3.42;;
17193;SDS011;8713;48.388;10.928;2023-09-08T12:51:59;5.00;;;3.33;;
17193;SDS011;8713;48.388;10.928;2023-09-08T12:53:33;5.13;;;3.55;;
17193;SDS011;8713;48.388;10.928;2023-09-08T12:55:06;5.82;;;3.40;;
17193;SDS011;8713;48.388;10.928;2023-09-08T12:56:37;7.88;;;3.45;;
17193;SDS011;8713;48.388;10.928;2023-09-08T12:58:06;5.88;;;3.65;;
17193;SDS011;8713;48.388;10.928;2023-09-08T12:59:36;6.72;;;3.53;;
17193;SDS011;8713;48.388;10.928;2023-09-08T13:01:05;5.40;;;3.53;;
17193;SDS011;8713;48.388;10.928;2023-09-08T13:02:36;4.35;;;3.25;;
17193;SDS011;8713;48.388;10.928;2023-09-08T13:04:05;4.95;;;3.28;;
17193;SDS011;8713;48.388;10.928;2023-09-08T13:05:35;5.22;;;3.42;;
17193;SDS011;8713;48.388;10.928;2023-09-08T13:07:05;4.72;;;3.45;;
17193;SDS011;8713;48.388;10.928;2023-09-08T13:08:35;8.35;;;3.60;;
17193;SDS011;8713;48.388;10.928;2023-09-08T13:10:04;4.60;;;3.38;;
17193;SDS011;8713;48.388;10.928;2023-09-08T13:11:35;5.88;;;3.72;;
17193;SDS011;8713;48.388;10.928;2023-09-08T13:13:05;5.30;;;3.72;;
17193;SDS011;8713;48.388;10.928;2023-09-08T13:14:34;6.28;;;3.65;;